createdAt,value
2019-02-15T00:02:01.756Z,92.60
2019-02-15T00:04:30.030Z,93.43
2019-02-15T00:06:58.306Z,90.17
2019-02-15T00:09:27.606Z,99.73
2019-02-15T00:11:55.683Z,101.10
2019-02-15T00:14:23.952Z,94.63
2019-02-15T00:17:13.028Z,91.43
2019-02-15T00:19:43.238Z,99.67
2019-02-15T00:22:11.718Z,86.13
2019-02-15T00:24:40.202Z,90.73
2019-02-15T00:27:08.679Z,80.20
2019-02-15T00:29:38.183Z,97.20
2019-02-15T00:32:08.717Z,90.97
2019-02-15T00:34:40.060Z,89.37
2019-02-15T00:37:08.999Z,91.17
2019-02-15T00:39:38.709Z,84.47
2019-02-15T00:42:07.560Z,75.57
2019-02-15T00:44:36.266Z,76.17
2019-02-15T00:47:05.952Z,80.90
2019-02-15T00:49:36.269Z,80.00
2019-02-15T00:52:11.917Z,85.87
2019-02-15T00:54:47.769Z,75.57
2019-02-15T00:57:18.093Z,81.80
2019-02-15T00:59:48.007Z,111.80
2019-02-15T01:02:18.331Z,105.80
2019-02-15T01:04:51.112Z,116.23
2019-02-15T01:07:20.618Z,90.63
2019-02-15T01:09:50.940Z,72.77
2019-02-15T01:12:23.723Z,78.40
2019-02-15T01:14:51.794Z,77.00
2019-02-15T01:17:20.071Z,74.17
2019-02-15T01:19:47.936Z,67.23
2019-02-15T01:22:16.212Z,67.20
2019-02-15T01:24:44.488Z,67.00
2019-02-15T01:30:20.361Z,78.23
2019-02-15T01:35:53.574Z,71.27
2019-02-15T01:38:23.894Z,70.07
2019-02-15T01:40:54.013Z,65.37
2019-02-15T01:43:29.865Z,66.77
2019-02-15T01:46:00.191Z,70.13
2019-02-15T01:48:28.467Z,66.50
2019-02-15T01:50:56.947Z,71.47
2019-02-15T01:53:25.018Z,78.10
2019-02-15T01:55:54.726Z,76.10
2019-02-15T01:58:22.796Z,75.00
2019-02-15T02:00:51.077Z,77.30
2019-02-15T02:03:19.348Z,71.77
2019-02-15T02:05:47.453Z,80.37
2019-02-15T02:08:17.538Z,85.90
2019-02-15T02:10:46.020Z,89.70
2019-02-15T02:13:14.293Z,82.30
2019-02-15T02:15:42.572Z,87.57
2019-02-15T02:18:12.074Z,92.37
2019-02-15T02:20:40.555Z,97.27
2019-02-15T02:23:09.047Z,91.27
2019-02-15T02:25:37.518Z,100.43
2019-02-15T02:28:05.791Z,96.83
2019-02-15T02:30:34.069Z,105.77
2019-02-15T02:33:02.362Z,94.33
2019-02-15T02:35:30.619Z,100.80
2019-02-15T02:37:58.484Z,100.77
2019-02-15T02:40:26.966Z,89.17
2019-02-15T02:42:55.254Z,106.37
2019-02-15T02:45:26.189Z,96.77
2019-02-15T02:47:54.454Z,95.80
2019-02-15T02:50:22.733Z,104.27
2019-02-15T02:52:51.006Z,94.07
2019-02-15T02:55:19.283Z,94.37
2019-02-15T02:57:47.566Z,96.17
2019-02-15T03:00:17.064Z,91.13
2019-02-15T03:02:45.543Z,85.30
2019-02-15T03:05:14.022Z,97.27
2019-02-15T03:07:42.321Z,118.23
2019-02-15T03:10:10.576Z,102.73
2019-02-15T03:12:38.852Z,117.83
2019-02-15T03:15:07.340Z,128.20
2019-02-15T03:17:35.823Z,110.57
2019-02-15T03:20:06.139Z,95.10
2019-02-15T03:22:34.623Z,106.73
2019-02-15T03:25:02.893Z,103.30
2019-02-15T03:27:31.171Z,108.33
2019-02-15T03:29:59.444Z,109.03
2019-02-15T03:32:28.949Z,101.53
2019-02-15T03:34:57.428Z,97.77
2019-02-15T03:37:42.497Z,96.77
2019-02-15T03:40:15.635Z,105.03
2019-02-15T03:42:55.601Z,102.10
2019-02-15T03:45:23.210Z,90.40
2019-02-15T03:47:51.369Z,102.50
2019-02-15T03:50:19.645Z,102.77
2019-02-15T03:52:48.125Z,100.17
2019-02-15T03:55:16.630Z,102.87
2019-02-15T03:57:45.086Z,98.70
2019-02-15T04:00:13.570Z,99.73
2019-02-15T04:02:42.047Z,104.80
2019-02-15T04:05:11.142Z,100.40
2019-02-15T04:07:39.623Z,101.50
2019-02-15T04:10:08.463Z,109.70
2019-02-15T04:12:36.174Z,103.87
2019-02-15T04:15:05.901Z,108.60
2019-02-15T04:17:33.545Z,97.03
2019-02-15T04:20:02.232Z,108.50
2019-02-15T04:22:30.302Z,108.20
2019-02-15T04:24:58.167Z,103.43
2019-02-15T04:27:26.651Z,104.30
2019-02-15T04:29:55.129Z,98.40
2019-02-15T04:32:23.611Z,113.90
2019-02-15T04:34:59.480Z,106.83
2019-02-15T04:37:27.123Z,114.37
2019-02-15T04:39:55.604Z,103.97
2019-02-15T04:42:25.108Z,99.10
2019-02-15T04:44:53.588Z,109.07
2019-02-15T04:47:22.071Z,105.67
2019-02-15T04:49:50.350Z,108.37
2019-02-15T04:52:18.621Z,110.50
2019-02-15T04:54:46.897Z,109.77
2019-02-15T04:57:15.378Z,101.93
2019-02-15T04:59:43.860Z,106.67
2019-02-15T05:02:12.340Z,106.83
2019-02-15T05:04:40.826Z,106.07
2019-02-15T05:07:09.503Z,91.63
2019-02-15T05:09:56.568Z,100.77
2019-02-15T05:12:24.896Z,106.63
2019-02-15T05:14:53.353Z,95.40
2019-02-15T05:17:21.448Z,110.73
2019-02-15T05:19:49.723Z,97.13
2019-02-15T05:22:17.794Z,97.40
2019-02-15T05:24:46.275Z,100.20
2019-02-15T05:27:14.755Z,85.37
2019-02-15T05:29:43.032Z,91.27
2019-02-15T05:32:11.512Z,94.90
2019-02-15T05:34:39.992Z,92.03
2019-02-15T05:37:08.269Z,87.67
2019-02-15T05:39:36.543Z,89.67
2019-02-15T05:42:05.025Z,89.63
2019-02-15T05:44:33.504Z,90.03
2019-02-15T05:47:01.986Z,88.53
2019-02-15T05:49:30.467Z,86.37
2019-02-15T05:51:58.947Z,88.07
2019-02-15T05:54:28.453Z,93.80
2019-02-15T05:56:56.726Z,91.37
2019-02-15T05:59:25.004Z,81.17
2019-02-15T06:01:53.290Z,88.77
2019-02-15T06:04:21.353Z,90.30
2019-02-15T06:06:49.834Z,84.23
2019-02-15T06:09:18.104Z,94.97
2019-02-15T06:11:46.382Z,86.60
2019-02-15T06:14:14.862Z,89.20
2019-02-15T06:16:43.344Z,94.70
2019-02-15T06:19:11.824Z,94.87
2019-02-15T06:21:40.303Z,82.20
2019-02-15T06:24:08.578Z,112.47
2019-02-15T06:26:36.853Z,99.73
2019-02-15T06:29:05.178Z,98.83
2019-02-15T06:31:32.790Z,90.90
2019-02-15T06:34:01.272Z,80.57
2019-02-15T06:36:31.186Z,90.73
2019-02-15T06:38:59.461Z,85.97
2019-02-15T06:41:27.328Z,93.67
2019-02-15T06:43:56.218Z,94.33
2019-02-15T06:46:23.419Z,103.17
2019-02-15T06:48:51.549Z,103.10
2019-02-15T06:51:20.021Z,110.90
2019-02-15T06:53:48.501Z,98.30
2019-02-15T06:56:16.983Z,125.73
2019-02-15T06:58:50.116Z,131.83
2019-02-15T07:01:22.389Z,126.40
2019-02-15T07:03:52.253Z,115.63
2019-02-15T07:06:20.804Z,106.87
2019-02-15T07:08:48.605Z,124.10
2019-02-15T07:11:16.312Z,101.27
2019-02-15T07:13:44.742Z,115.57
2019-02-15T07:16:13.018Z,111.97
2019-02-15T07:18:41.294Z,97.37
2019-02-15T07:21:09.590Z,94.90
2019-02-15T07:23:37.847Z,87.97
2019-02-15T07:26:05.712Z,96.47
2019-02-15T07:28:34.192Z,83.97
2019-02-15T07:31:02.672Z,128.93
2019-02-15T07:33:31.153Z,112.50
2019-02-15T07:35:59.636Z,91.10
2019-02-15T07:38:28.120Z,89.80
2019-02-15T07:40:56.594Z,73.83
2019-02-15T07:43:24.871Z,70.83
2019-02-15T07:45:53.352Z,66.30
2019-02-15T07:48:21.421Z,76.20
2019-02-15T07:50:49.261Z,70.03
2019-02-15T07:53:17.563Z,75.70
2019-02-15T07:55:45.838Z,72.10
2019-02-15T07:58:15.549Z,77.77
2019-02-15T08:00:44.029Z,66.77
2019-02-15T08:03:12.510Z,67.33
2019-02-15T08:05:40.583Z,68.03
2019-02-15T08:08:08.858Z,71.00
2019-02-15T08:10:39.360Z,71.60
2019-02-15T08:13:06.639Z,64.97
2019-02-15T08:15:36.470Z,159.33
2019-02-15T08:18:04.826Z,134.40
2019-02-15T08:20:34.142Z,86.33
2019-02-15T08:23:01.992Z,121.93
2019-02-15T08:25:30.269Z,65.27
2019-02-15T08:27:58.545Z,76.40
2019-02-15T08:30:26.823Z,75.47
2019-02-15T08:32:55.097Z,100.13
2019-02-15T08:35:23.575Z,96.07
2019-02-15T08:37:53.084Z,71.23
2019-02-15T08:40:22.790Z,76.13
2019-02-15T08:42:50.656Z,89.13
2019-02-15T08:45:19.136Z,109.70
2019-02-15T08:47:47.619Z,68.80
2019-02-15T08:50:15.894Z,62.20
2019-02-15T08:52:44.170Z,60.20
2019-02-15T08:55:12.446Z,84.60
2019-02-15T08:57:40.764Z,73.40
2019-02-15T09:00:11.151Z,60.80
2019-02-15T09:02:38.710Z,83.80
2019-02-15T09:05:08.901Z,57.27
2019-02-15T09:07:36.486Z,59.97
2019-02-15T09:10:30.772Z,91.13
2019-02-15T09:12:59.460Z,64.37
2019-02-15T09:15:27.731Z,61.03
2019-02-15T09:17:56.212Z,63.90
2019-02-15T09:20:24.907Z,69.77
2019-02-15T09:22:52.717Z,63.13
2019-02-15T09:25:20.630Z,73.40
2019-02-15T09:27:50.263Z,69.63
2019-02-15T09:30:17.618Z,82.03
2019-02-15T09:32:45.264Z,88.10
2019-02-15T09:35:15.781Z,58.30
2019-02-15T09:37:44.057Z,58.00
2019-02-15T09:40:12.334Z,50.43
2019-02-15T09:42:40.813Z,52.67
2019-02-15T09:45:10.880Z,62.27
2019-02-15T09:47:38.593Z,73.77
2019-02-15T09:50:09.721Z,52.57
2019-02-15T09:52:38.422Z,60.40
2019-02-15T09:55:07.516Z,60.03
2019-02-15T09:57:35.791Z,51.57
2019-02-15T10:00:09.393Z,48.53
2019-02-15T10:02:48.136Z,53.43
2019-02-15T10:05:16.598Z,57.10
2019-02-15T10:07:44.611Z,53.07
2019-02-15T10:10:12.942Z,53.17
2019-02-15T10:12:41.049Z,71.13
2019-02-15T10:15:09.714Z,81.60
2019-02-15T10:17:36.885Z,77.17
2019-02-15T10:20:05.154Z,74.43
2019-02-15T10:22:32.541Z,53.10
2019-02-15T10:24:59.852Z,66.17
2019-02-15T10:27:27.041Z,56.57
2019-02-15T10:29:54.352Z,46.67
2019-02-15T10:32:21.630Z,65.17
2019-02-15T10:34:48.896Z,59.77
2019-02-15T10:37:16.195Z,71.03
2019-02-15T10:39:43.449Z,65.27
2019-02-15T10:42:10.743Z,76.77
2019-02-15T10:44:37.978Z,56.80
2019-02-15T10:47:13.850Z,57.83
2019-02-15T10:49:35.421Z,57.43
2019-02-15T10:52:02.703Z,65.70
2019-02-15T10:54:30.059Z,61.33
2019-02-15T10:56:57.337Z,74.87
2019-02-15T10:59:24.687Z,66.07
2019-02-15T11:01:51.878Z,49.53
2019-02-15T11:04:19.085Z,66.60
2019-02-15T11:06:46.391Z,55.07
2019-02-15T11:09:13.892Z,58.67
2019-02-15T11:11:41.728Z,50.00
2019-02-15T11:14:09.075Z,55.40
2019-02-15T11:16:36.317Z,56.07
2019-02-15T11:19:03.570Z,55.33
2019-02-15T11:21:30.820Z,53.80
2019-02-15T11:23:58.500Z,47.47
2019-02-15T11:26:25.811Z,57.70
2019-02-15T11:28:53.179Z,64.03
2019-02-15T11:31:20.421Z,52.13
2019-02-15T11:33:47.665Z,57.13
2019-02-15T11:36:15.059Z,58.67
2019-02-15T11:38:42.220Z,76.43
2019-02-15T11:41:11.409Z,58.40
2019-02-15T11:43:40.822Z,78.17
2019-02-15T11:46:08.697Z,69.57
2019-02-15T11:48:36.066Z,75.20
2019-02-15T11:51:03.995Z,65.87
2019-02-15T11:53:32.130Z,64.40
2019-02-15T11:55:59.291Z,56.93
2019-02-15T11:58:26.560Z,67.37
2019-02-15T12:00:53.961Z,63.13
2019-02-15T12:03:21.117Z,62.67
2019-02-15T12:05:48.317Z,66.70
2019-02-15T12:08:15.589Z,55.27
2019-02-15T12:10:43.012Z,47.87
2019-02-15T12:13:10.260Z,51.30
2019-02-15T12:15:37.523Z,55.80
2019-02-15T12:18:04.791Z,60.53
2019-02-15T12:20:31.976Z,53.27
2019-02-15T12:22:59.143Z,62.20
2019-02-15T12:25:26.478Z,55.50
2019-02-15T12:27:53.629Z,49.23
2019-02-15T12:30:20.816Z,62.07
2019-02-15T12:32:48.106Z,68.97
2019-02-15T12:35:15.796Z,58.50
2019-02-15T12:37:43.564Z,49.33
2019-02-15T12:40:11.030Z,58.77
2019-02-15T12:42:38.325Z,51.77
2019-02-15T12:45:10.041Z,60.93
2019-02-15T12:47:37.285Z,67.53
2019-02-15T12:50:07.969Z,63.50
2019-02-15T12:52:35.181Z,56.33
2019-02-15T12:55:03.913Z,70.73
2019-02-15T12:57:31.407Z,58.37
2019-02-15T12:59:58.700Z,67.57
2019-02-15T13:02:25.976Z,60.00
2019-02-15T13:04:53.274Z,65.43
2019-02-15T13:07:20.514Z,56.20
2019-02-15T13:09:48.124Z,66.30
2019-02-15T13:12:16.043Z,60.23
2019-02-15T13:14:44.467Z,58.80
2019-02-15T13:17:12.752Z,58.80
2019-02-15T13:19:41.019Z,48.93
2019-02-15T13:22:09.092Z,50.37
2019-02-15T13:24:37.366Z,57.17
2019-02-15T13:27:05.440Z,61.17
2019-02-15T13:29:33.249Z,52.13
2019-02-15T13:32:01.375Z,63.70
2019-02-15T13:34:29.855Z,72.77
2019-02-15T13:36:57.924Z,67.03
2019-02-15T13:39:26.200Z,67.13
2019-02-15T13:41:54.682Z,76.30
2019-02-15T13:44:22.342Z,80.63
2019-02-15T13:46:50.621Z,80.20
2019-02-15T13:49:18.689Z,70.70
2019-02-15T13:51:46.760Z,68.80
2019-02-15T13:54:14.831Z,78.57
2019-02-15T13:56:42.902Z,79.87
2019-02-15T13:59:10.974Z,84.70
2019-02-15T14:01:39.298Z,71.17
2019-02-15T14:04:07.318Z,83.43
2019-02-15T14:06:35.626Z,86.90
2019-02-15T14:09:04.678Z,81.40
2019-02-15T14:11:32.093Z,83.80
2019-02-15T14:14:00.531Z,67.60
2019-02-15T14:16:31.566Z,68.53
2019-02-15T14:19:00.045Z,82.10
2019-02-15T14:21:28.119Z,69.33
2019-02-15T14:23:56.229Z,91.00
2019-02-15T14:26:36.627Z,76.20
2019-02-15T14:29:05.026Z,107.97
2019-02-15T14:31:33.507Z,83.73
2019-02-15T14:34:01.988Z,117.80
2019-02-15T14:36:30.471Z,89.87
2019-02-15T14:38:58.541Z,94.17
2019-02-15T14:41:27.020Z,82.37
2019-02-15T14:43:55.295Z,93.67
2019-02-15T14:46:24.800Z,94.70
2019-02-15T14:48:52.779Z,116.30
2019-02-15T14:51:21.879Z,83.13
2019-02-15T14:53:49.175Z,73.80
2019-02-15T14:56:16.813Z,72.47
2019-02-15T14:58:44.117Z,80.03
2019-02-15T15:01:11.406Z,82.17
2019-02-15T15:03:38.622Z,98.73
2019-02-15T15:06:06.135Z,68.00
2019-02-15T15:08:33.378Z,87.30
2019-02-15T15:11:00.682Z,86.23
2019-02-15T15:13:28.049Z,78.40
2019-02-15T15:15:55.524Z,84.13
2019-02-15T15:18:23.495Z,91.57
2019-02-15T15:20:51.240Z,87.63
2019-02-15T15:23:19.522Z,58.20
2019-02-15T15:25:47.587Z,63.77
2019-02-15T15:28:16.076Z,58.53
2019-02-15T15:30:44.345Z,73.57
2019-02-15T15:33:12.413Z,62.00
2019-02-15T15:35:40.694Z,54.57
2019-02-15T15:38:08.760Z,53.97
2019-02-15T15:40:37.044Z,90.47
2019-02-15T15:43:05.317Z,61.57
2019-02-15T15:45:33.328Z,52.87
2019-02-15T15:48:01.457Z,52.47
2019-02-15T15:50:29.730Z,59.00
2019-02-15T15:52:58.014Z,54.37
2019-02-15T15:55:25.821Z,65.37
2019-02-15T15:57:54.163Z,64.57
2019-02-15T16:00:23.447Z,78.07
2019-02-15T16:02:51.723Z,77.03
2019-02-15T16:05:19.793Z,72.63
2019-02-15T16:07:48.073Z,74.33
2019-02-15T16:10:16.138Z,63.10
2019-02-15T16:12:44.210Z,50.87
2019-02-15T16:15:12.944Z,47.63
2019-02-15T16:17:40.767Z,55.57
2019-02-15T16:20:12.323Z,54.27
2019-02-15T16:22:39.975Z,63.10
2019-02-15T16:25:08.621Z,60.57
2019-02-15T16:27:36.331Z,63.63
2019-02-15T16:30:07.881Z,51.63
2019-02-15T16:32:35.536Z,46.47
2019-02-15T16:35:04.781Z,50.67
2019-02-15T16:37:32.294Z,55.30
2019-02-15T16:40:00.772Z,59.57
2019-02-15T16:42:29.253Z,47.80
2019-02-15T16:44:57.733Z,43.47
2019-02-15T16:47:26.215Z,49.77
2019-02-15T16:49:54.694Z,58.63
2019-02-15T16:52:23.178Z,59.80
2019-02-15T16:54:52.690Z,64.60
2019-02-15T16:57:21.163Z,55.77
2019-02-15T16:59:49.641Z,46.67
2019-02-15T17:02:18.121Z,54.27
2019-02-15T17:04:46.612Z,54.17
2019-02-15T17:07:15.291Z,62.80
2019-02-15T17:09:42.951Z,123.80
2019-02-15T17:12:11.431Z,84.70
2019-02-15T17:14:39.909Z,123.30
2019-02-15T17:17:08.395Z,67.97
2019-02-15T17:19:38.304Z,66.13
2019-02-15T17:22:07.195Z,65.60
2019-02-15T17:24:35.265Z,66.67
2019-02-15T17:27:03.747Z,115.60
2019-02-15T17:29:31.818Z,72.80
2019-02-15T17:32:00.297Z,59.73
2019-02-15T17:34:28.778Z,57.63
2019-02-15T17:36:57.260Z,49.80
2019-02-15T17:39:25.741Z,47.97
2019-02-15T17:41:54.219Z,62.10
2019-02-15T17:44:22.704Z,51.50
2019-02-15T17:46:52.204Z,48.90
2019-02-15T17:49:20.479Z,56.63
2019-02-15T17:51:48.756Z,43.27
2019-02-15T17:54:17.031Z,51.67
2019-02-15T17:56:45.310Z,47.27
2019-02-15T17:59:13.786Z,41.23
2019-02-15T18:01:41.246Z,54.80
2019-02-15T18:04:09.469Z,65.40
2019-02-15T18:06:37.180Z,76.20
2019-02-15T18:09:05.661Z,96.47
2019-02-15T18:11:34.141Z,69.43
2019-02-15T18:14:02.637Z,89.73
2019-02-15T18:16:31.103Z,76.53
2019-02-15T18:18:59.382Z,69.00
2019-02-15T18:21:27.860Z,96.53
2019-02-15T18:23:55.931Z,95.23
2019-02-15T18:26:24.002Z,81.20
2019-02-15T18:28:52.279Z,93.83
2019-02-15T18:31:20.552Z,69.57
2019-02-15T18:33:48.373Z,65.33
2019-02-15T18:36:16.931Z,103.77
2019-02-15T18:38:45.767Z,83.90
2019-02-15T18:41:13.850Z,83.43
2019-02-15T18:43:43.625Z,78.53
2019-02-15T18:46:11.187Z,82.17
2019-02-15T18:48:39.506Z,74.57
2019-02-15T18:51:07.339Z,60.30
2019-02-15T18:53:34.702Z,67.33
2019-02-15T18:56:01.877Z,65.17
2019-02-15T18:58:29.233Z,94.50
2019-02-15T19:00:56.616Z,65.50
2019-02-15T19:03:24.064Z,64.53
2019-02-15T19:05:51.454Z,70.17
2019-02-15T19:08:18.756Z,67.37
2019-02-15T19:10:46.144Z,71.53
2019-02-15T19:13:13.337Z,78.85
2019-02-15T19:15:40.688Z,85.87
2019-02-15T19:18:07.866Z,81.00
2019-02-15T19:20:35.212Z,107.03
2019-02-15T19:23:02.503Z,82.27
2019-02-15T19:25:29.862Z,87.70
2019-02-15T19:27:57.024Z,91.13
2019-02-15T19:30:30.189Z,97.87
2019-02-15T19:32:57.336Z,97.77
2019-02-15T19:35:24.666Z,94.10
2019-02-15T19:37:52.019Z,103.53
2019-02-15T19:40:19.472Z,98.80
2019-02-15T19:42:48.630Z,122.10
2019-02-15T19:45:15.861Z,124.83
2019-02-15T19:47:43.165Z,134.10
2019-02-15T19:50:12.474Z,139.47
2019-02-15T19:52:39.980Z,131.53
2019-02-15T19:55:08.456Z,140.57
2019-02-15T19:57:35.725Z,116.20
2019-02-15T20:00:05.803Z,102.67
2019-02-15T20:02:33.269Z,102.27
2019-02-15T20:05:00.571Z,107.83
2019-02-15T20:07:28.357Z,120.53
2019-02-15T20:09:56.632Z,118.67
2019-02-15T20:12:24.702Z,112.00
2019-02-15T20:14:52.980Z,97.80
2019-02-15T20:17:21.260Z,106.07
2019-02-15T20:19:56.095Z,104.20
2019-02-15T20:22:24.404Z,124.57
2019-02-15T20:24:52.532Z,116.90
2019-02-15T20:27:19.807Z,120.40
2019-02-15T20:29:49.553Z,125.13
2019-02-15T20:32:16.289Z,151.80
2019-02-15T20:34:45.268Z,176.70
2019-02-15T20:37:13.097Z,147.60
2019-02-15T20:39:40.386Z,153.30
2019-02-15T20:42:07.746Z,159.87
2019-02-15T20:44:34.928Z,177.50
2019-02-15T20:47:02.274Z,166.57
2019-02-15T20:49:29.557Z,133.17
2019-02-15T20:51:56.882Z,117.13
2019-02-15T20:54:24.185Z,156.47
2019-02-15T20:56:51.361Z,133.43
2019-02-15T20:59:18.552Z,156.80
2019-02-15T21:01:45.837Z,135.57
2019-02-15T21:04:13.076Z,119.97
2019-02-15T21:06:40.340Z,130.90
2019-02-15T21:09:07.597Z,111.37
2019-02-15T21:11:34.876Z,120.07
2019-02-15T21:14:02.146Z,115.87
2019-02-15T21:16:29.425Z,110.87
2019-02-15T21:18:56.743Z,95.33
2019-02-15T21:21:24.029Z,111.10
2019-02-15T21:23:51.369Z,114.83
2019-02-15T21:26:18.641Z,94.77
2019-02-15T21:28:45.921Z,95.20
2019-02-15T21:31:13.194Z,105.10
2019-02-15T21:33:40.464Z,95.83
2019-02-15T21:36:07.788Z,87.03
2019-02-15T21:38:35.203Z,90.90
2019-02-15T21:41:02.376Z,86.33
2019-02-15T21:43:29.956Z,82.80
2019-02-15T21:45:57.461Z,77.17
2019-02-15T21:48:25.158Z,72.10
2019-02-15T21:50:52.793Z,71.37
2019-02-15T21:53:21.068Z,90.17
2019-02-15T21:55:49.345Z,85.73
2019-02-15T21:58:17.622Z,97.33
2019-02-15T22:00:58.724Z,91.20
2019-02-15T22:03:26.505Z,87.47
2019-02-15T22:05:54.131Z,82.77
2019-02-15T22:08:22.601Z,94.33
2019-02-15T22:11:03.426Z,87.67
2019-02-15T22:13:30.889Z,95.43
2019-02-15T22:16:06.729Z,96.83
2019-02-15T22:18:34.341Z,111.77
2019-02-15T22:21:09.581Z,88.47
2019-02-15T22:23:38.060Z,114.13
2019-02-15T22:26:06.339Z,111.80
2019-02-15T22:28:34.614Z,108.20
2019-02-15T22:31:02.683Z,108.30
2019-02-15T22:33:30.958Z,110.43
2019-02-15T22:35:59.234Z,90.77
2019-02-15T22:38:27.512Z,85.90
2019-02-15T22:40:59.108Z,83.60
2019-02-15T22:43:43.698Z,74.43
2019-02-15T22:46:11.178Z,79.20
2019-02-15T22:48:39.253Z,83.97
2019-02-15T22:51:07.732Z,84.30
2019-02-15T22:53:42.149Z,85.57
2019-02-15T22:56:10.742Z,91.67
2019-02-15T22:58:39.113Z,84.80
2019-02-15T23:01:10.085Z,99.53
2019-02-15T23:03:37.712Z,101.90
2019-02-15T23:06:05.782Z,109.03
2019-02-15T23:08:34.261Z,114.03
2019-02-15T23:11:02.333Z,104.20
2019-02-15T23:13:30.813Z,120.50
2019-02-15T23:15:59.300Z,106.57
2019-02-15T23:18:27.773Z,104.47
2019-02-15T23:20:56.050Z,95.83
2019-02-15T23:23:24.547Z,88.30
2019-02-15T23:25:53.016Z,88.93
2019-02-15T23:28:22.925Z,78.23
2019-02-15T23:30:57.140Z,113.13
2019-02-15T23:33:31.562Z,99.23
2019-02-15T23:35:59.835Z,89.90
2019-02-15T23:38:28.113Z,103.83
2019-02-15T23:40:56.389Z,101.83
2019-02-15T23:43:24.664Z,113.50
2019-02-15T23:45:53.147Z,123.60
2019-02-15T23:48:21.625Z,101.87
2019-02-15T23:50:55.205Z,88.47
2019-02-15T23:53:22.477Z,83.83
2019-02-15T23:55:50.546Z,83.53
2019-02-15T23:58:18.827Z,85.70
